createdAt,value
2018-12-14T00:00:36.599Z,48.45
2018-12-14T00:03:03.170Z,48.61
2018-12-14T00:05:29.752Z,48.29
2018-12-14T00:07:56.310Z,48.37
2018-12-14T00:10:22.903Z,48.32
2018-12-14T00:12:49.471Z,48.40
2018-12-14T00:15:16.057Z,49.05
2018-12-14T00:17:42.615Z,48.61
2018-12-14T00:20:09.185Z,48.86
2018-12-14T00:22:35.739Z,48.84
2018-12-14T00:25:02.304Z,48.41
2018-12-14T00:27:29.070Z,48.54
2018-12-14T00:29:55.851Z,48.97
2018-12-14T00:32:22.547Z,49.33
2018-12-14T00:34:49.110Z,48.95
2018-12-14T00:37:15.681Z,48.70
2018-12-14T00:39:42.317Z,49.04
2018-12-14T00:42:08.897Z,48.60
2018-12-14T00:44:35.455Z,48.47
2018-12-14T00:47:02.091Z,48.71
2018-12-14T00:49:28.679Z,48.46
2018-12-14T00:51:55.230Z,48.61
2018-12-14T00:54:21.838Z,48.92
2018-12-14T00:56:48.436Z,48.42
2018-12-14T00:59:15.015Z,48.63
2018-12-14T01:01:41.635Z,49.10
2018-12-14T01:04:08.262Z,49.28
2018-12-14T01:06:34.853Z,48.66
2018-12-14T01:09:01.425Z,48.68
2018-12-14T01:11:28.023Z,48.42
2018-12-14T01:13:54.708Z,48.73
2018-12-14T01:16:21.292Z,49.49
2018-12-14T01:18:47.838Z,49.16
2018-12-14T01:21:14.409Z,48.60
2018-12-14T01:23:40.969Z,49.07
2018-12-14T01:26:07.551Z,49.16
2018-12-14T01:28:34.146Z,49.41
2018-12-14T01:31:00.708Z,49.27
2018-12-14T01:33:27.267Z,48.54
2018-12-14T01:35:53.866Z,48.69
2018-12-14T01:38:20.436Z,49.03
2018-12-14T01:40:46.985Z,48.61
2018-12-14T01:43:13.568Z,48.54
2018-12-14T01:45:40.168Z,48.58
2018-12-14T01:48:06.755Z,48.67
2018-12-14T01:50:33.416Z,49.49
2018-12-14T01:52:59.991Z,48.57
2018-12-14T01:55:26.560Z,49.07
2018-12-14T01:57:53.219Z,49.45
2018-12-14T02:00:19.827Z,49.37
2018-12-14T02:02:46.435Z,49.42
2018-12-14T02:05:12.987Z,48.87
2018-12-14T02:07:39.572Z,49.18
2018-12-14T02:10:06.167Z,48.90
2018-12-14T02:12:32.743Z,49.31
2018-12-14T02:14:59.319Z,49.08
2018-12-14T02:17:25.895Z,48.84
2018-12-14T02:19:52.490Z,49.53
2018-12-14T02:22:19.084Z,49.01
2018-12-14T02:24:45.703Z,49.37
2018-12-14T02:27:12.273Z,49.17
2018-12-14T02:29:38.856Z,49.37
2018-12-14T02:32:05.899Z,49.31
2018-12-14T02:34:32.457Z,49.37
2018-12-14T02:36:59.053Z,49.36
2018-12-14T02:39:25.634Z,49.52
2018-12-14T02:41:52.220Z,48.82
2018-12-14T02:44:18.793Z,48.95
2018-12-14T02:46:45.371Z,48.98
2018-12-14T02:49:11.927Z,49.01
2018-12-14T02:51:38.530Z,49.12
2018-12-14T02:54:05.107Z,49.78
2018-12-14T02:56:31.695Z,48.92
2018-12-14T02:58:58.299Z,49.32
2018-12-14T03:01:24.888Z,49.28
2018-12-14T03:03:51.471Z,49.62
2018-12-14T03:06:18.050Z,49.66
2018-12-14T03:08:44.639Z,48.96
2018-12-14T03:11:11.228Z,49.01
2018-12-14T03:13:37.820Z,49.79
2018-12-14T03:16:04.379Z,49.17
2018-12-14T03:18:30.967Z,49.73
2018-12-14T03:20:57.548Z,49.43
2018-12-14T03:23:24.123Z,49.11
2018-12-14T03:25:50.883Z,49.86
2018-12-14T03:28:17.453Z,49.79
2018-12-14T03:30:44.017Z,49.18
2018-12-14T03:33:10.604Z,49.14
2018-12-14T03:35:37.183Z,49.79
2018-12-14T03:38:03.762Z,49.61
2018-12-14T03:40:30.349Z,49.82
2018-12-14T03:42:56.930Z,49.20
2018-12-14T03:45:23.488Z,49.69
2018-12-14T03:47:50.043Z,49.08
2018-12-14T03:50:16.604Z,49.39
2018-12-14T03:52:43.225Z,49.06
2018-12-14T03:55:09.826Z,49.28
2018-12-14T03:57:36.428Z,49.07
2018-12-14T04:00:02.982Z,49.20
2018-12-14T04:02:29.548Z,49.15
2018-12-14T04:04:56.117Z,49.18
2018-12-14T04:07:22.691Z,49.20
2018-12-14T04:09:49.309Z,49.86
2018-12-14T04:12:15.913Z,49.43
2018-12-14T04:14:42.494Z,49.07
2018-12-14T04:17:09.058Z,49.21
2018-12-14T04:19:35.638Z,49.79
2018-12-14T04:22:02.231Z,49.60
2018-12-14T04:24:28.807Z,49.88
2018-12-14T04:26:55.409Z,49.14
2018-12-14T04:29:21.972Z,49.27
2018-12-14T04:31:48.538Z,49.92
2018-12-14T04:34:15.108Z,49.63
2018-12-14T04:36:41.669Z,50.07
2018-12-14T04:39:08.288Z,49.28
2018-12-14T04:41:34.849Z,49.40
2018-12-14T04:44:01.435Z,49.81
2018-12-14T04:46:28.035Z,49.97
2018-12-14T04:48:54.589Z,49.49
2018-12-14T04:51:21.179Z,49.89
2018-12-14T04:53:47.754Z,49.46
2018-12-14T04:56:14.445Z,49.22
2018-12-14T04:58:41.090Z,50.01
2018-12-14T05:01:07.656Z,50.18
2018-12-14T05:03:34.265Z,49.87
2018-12-14T05:06:00.822Z,49.48
2018-12-14T05:08:27.420Z,49.36
2018-12-14T05:10:53.998Z,49.58
2018-12-14T05:13:20.667Z,49.29
2018-12-14T05:15:47.277Z,50.27
2018-12-14T05:18:13.831Z,49.38
2018-12-14T05:20:40.447Z,50.18
2018-12-14T05:23:07.036Z,49.49
2018-12-14T05:25:33.628Z,50.12
2018-12-14T05:28:00.201Z,50.26
2018-12-14T05:30:26.788Z,49.51
2018-12-14T05:32:53.402Z,49.59
2018-12-14T05:35:20.020Z,50.29
2018-12-14T05:37:46.635Z,49.47
2018-12-14T05:40:13.215Z,50.16
2018-12-14T05:42:39.788Z,49.42
2018-12-14T05:45:06.400Z,50.20
2018-12-14T05:47:32.958Z,49.99
2018-12-14T05:49:59.582Z,49.52
2018-12-14T05:52:26.169Z,50.00
2018-12-14T05:54:52.745Z,49.66
2018-12-14T05:57:19.336Z,50.17
2018-12-14T05:59:45.907Z,49.91
2018-12-14T06:02:12.476Z,49.56
2018-12-14T06:04:39.060Z,50.25
2018-12-14T06:07:05.623Z,49.65
2018-12-14T06:09:32.233Z,50.30
2018-12-14T06:11:58.837Z,49.85
2018-12-14T06:14:25.394Z,49.76
2018-12-14T06:16:52.006Z,49.68
2018-12-14T06:19:18.583Z,49.77
2018-12-14T06:21:45.163Z,50.00
2018-12-14T06:24:11.740Z,50.46
2018-12-14T06:26:38.346Z,50.15
2018-12-14T06:29:04.923Z,49.66
2018-12-14T06:31:31.497Z,49.87
2018-12-14T06:33:58.120Z,50.03
2018-12-14T06:36:24.688Z,50.38
2018-12-14T06:38:51.271Z,50.54
2018-12-14T06:41:17.872Z,49.85
2018-12-14T06:43:44.448Z,50.13
2018-12-14T06:46:11.100Z,49.87
2018-12-14T06:48:37.672Z,50.63
2018-12-14T06:51:04.571Z,50.56
2018-12-14T06:53:31.139Z,50.34
2018-12-14T06:55:57.879Z,50.63
2018-12-14T06:58:24.480Z,49.85
2018-12-14T07:00:51.079Z,50.03
2018-12-14T07:03:17.699Z,50.30
2018-12-14T07:05:44.278Z,50.48
2018-12-14T07:08:10.878Z,49.79
2018-12-14T07:10:37.468Z,49.85
2018-12-14T07:13:04.071Z,50.01
2018-12-14T07:15:30.631Z,50.58
2018-12-14T07:17:57.226Z,50.14
2018-12-14T07:20:23.779Z,50.12
2018-12-14T07:22:50.383Z,50.33
2018-12-14T07:25:16.972Z,49.89
2018-12-14T07:27:43.670Z,49.87
2018-12-14T07:30:10.263Z,50.50
2018-12-14T07:32:38.180Z,50.16
2018-12-14T07:35:04.935Z,50.64
2018-12-14T07:37:31.552Z,50.04
2018-12-14T07:39:58.229Z,50.12
2018-12-14T07:42:24.803Z,50.30
2018-12-14T07:44:51.525Z,49.77
2018-12-14T07:47:18.227Z,50.64
2018-12-14T07:49:44.827Z,50.27
2018-12-14T07:52:11.428Z,49.70
2018-12-14T07:54:38.027Z,50.62
2018-12-14T07:57:04.582Z,50.56
2018-12-14T07:59:31.152Z,50.31
2018-12-14T08:01:57.792Z,50.38
2018-12-14T08:04:24.480Z,50.34
2018-12-14T08:06:51.063Z,49.81
2018-12-14T08:09:17.930Z,49.70
2018-12-14T08:11:44.503Z,50.40
2018-12-14T08:14:11.073Z,50.41
2018-12-14T08:16:37.683Z,50.62
2018-12-14T08:19:04.248Z,49.59
2018-12-14T08:21:30.811Z,50.16
2018-12-14T08:23:57.575Z,50.01
2018-12-14T08:26:24.140Z,50.68
2018-12-14T08:28:50.719Z,51.01
2018-12-14T08:31:17.282Z,50.88
2018-12-14T08:33:43.848Z,32.98
2018-12-14T08:36:10.406Z,34.33
2018-12-14T08:38:36.971Z,32.92
2018-12-14T08:41:03.545Z,33.25
2018-12-14T08:43:30.104Z,33.30
2018-12-14T08:45:56.704Z,34.18
2018-12-14T08:48:23.260Z,35.62
2018-12-14T08:50:49.943Z,37.37
2018-12-14T08:53:16.607Z,38.67
2018-12-14T08:55:43.166Z,38.45
2018-12-14T08:58:09.720Z,39.33
2018-12-14T09:00:36.282Z,39.69
2018-12-14T09:03:02.834Z,39.38
2018-12-14T09:05:29.416Z,40.17
2018-12-14T09:07:55.995Z,39.76
2018-12-14T09:10:22.699Z,40.46
2018-12-14T09:12:49.250Z,40.56
2018-12-14T09:15:15.865Z,41.10
2018-12-14T09:17:42.426Z,41.23
2018-12-14T09:20:09.001Z,41.67
2018-12-14T09:22:35.562Z,41.53
2018-12-14T09:25:02.117Z,41.65
2018-12-14T09:27:28.676Z,41.67
2018-12-14T09:29:55.241Z,42.20
2018-12-14T09:32:21.803Z,41.36
2018-12-14T09:34:48.395Z,41.57
2018-12-14T09:37:14.978Z,41.96
2018-12-14T09:39:41.683Z,42.34
2018-12-14T09:42:08.246Z,42.67
2018-12-14T09:44:34.814Z,33.35
2018-12-14T09:47:01.479Z,36.17
2018-12-14T09:49:28.218Z,35.70
2018-12-14T09:51:54.909Z,37.26
2018-12-14T09:54:21.468Z,38.88
2018-12-14T09:56:48.030Z,39.60
2018-12-14T09:59:14.647Z,40.11
2018-12-14T10:01:41.283Z,40.54
2018-12-14T10:04:07.962Z,40.67
2018-12-14T10:06:34.594Z,40.90
2018-12-14T10:09:01.343Z,41.08
2018-12-14T10:11:27.934Z,40.58
2018-12-14T10:14:00.667Z,41.21
2018-12-14T10:16:23.120Z,41.80
2018-12-14T10:18:50.417Z,41.05
2018-12-14T10:21:16.987Z,41.01
2018-12-14T10:23:44.708Z,41.15
2018-12-14T10:26:11.451Z,41.26
2018-12-14T10:28:38.034Z,41.48
2018-12-14T10:31:04.604Z,42.13
2018-12-14T10:33:31.197Z,40.96
2018-12-14T10:35:57.843Z,42.27
2018-12-14T10:38:24.455Z,42.66
2018-12-14T10:40:51.039Z,42.22
2018-12-14T10:43:17.640Z,42.94
2018-12-14T10:45:44.434Z,42.95
2018-12-14T10:48:11.091Z,42.80
2018-12-14T10:50:39.677Z,42.55
2018-12-14T10:53:08.951Z,42.79
2018-12-14T10:55:35.535Z,43.09
2018-12-14T10:58:02.239Z,42.80
2018-12-14T11:00:34.522Z,42.93
2018-12-14T11:03:01.112Z,42.97
2018-12-14T11:05:27.677Z,43.58
2018-12-14T11:07:54.300Z,43.08
2018-12-14T11:10:21.032Z,43.90
2018-12-14T11:12:47.591Z,43.59
2018-12-14T11:15:14.167Z,43.84
2018-12-14T11:17:40.719Z,44.24
2018-12-14T11:20:07.285Z,43.68
2018-12-14T11:22:33.855Z,44.02
2018-12-14T11:25:00.442Z,44.28
2018-12-14T11:27:27.044Z,43.72
2018-12-14T11:29:53.624Z,44.05
2018-12-14T11:32:20.199Z,44.66
2018-12-14T11:34:46.804Z,44.64
2018-12-14T11:37:13.390Z,43.93
2018-12-14T11:39:40.062Z,44.72
2018-12-14T11:42:06.721Z,44.66
2018-12-14T11:44:33.459Z,44.27
2018-12-14T11:47:00.096Z,44.31
2018-12-14T11:49:26.735Z,44.87
2018-12-14T11:51:53.337Z,44.27
2018-12-14T11:54:19.918Z,44.47
2018-12-14T11:56:46.516Z,44.35
2018-12-14T11:59:13.118Z,44.69
2018-12-14T12:01:39.716Z,45.47
2018-12-14T12:04:06.292Z,45.23
2018-12-14T12:06:32.883Z,44.76
2018-12-14T12:08:59.463Z,45.25
2018-12-14T12:11:26.016Z,44.46
2018-12-14T12:13:52.567Z,45.17
2018-12-14T12:16:19.155Z,45.04
2018-12-14T12:18:45.752Z,45.16
2018-12-14T12:21:12.359Z,44.66
2018-12-14T12:23:38.947Z,45.28
2018-12-14T12:26:05.490Z,44.76
2018-12-14T12:28:32.984Z,44.67
2018-12-14T12:30:59.568Z,44.68
2018-12-14T12:33:26.144Z,44.63
2018-12-14T12:35:52.691Z,44.62
2018-12-14T12:38:19.249Z,45.09
2018-12-14T12:40:45.817Z,43.82
2018-12-14T12:43:12.425Z,45.12
2018-12-14T12:45:38.982Z,45.51
2018-12-14T12:48:05.576Z,44.76
2018-12-14T12:50:32.125Z,44.84
2018-12-14T12:52:58.695Z,45.38
2018-12-14T12:55:25.266Z,45.73
2018-12-14T12:57:51.812Z,45.54
2018-12-14T13:00:18.348Z,44.78
2018-12-14T13:02:44.903Z,45.79
2018-12-14T13:05:11.481Z,45.86
2018-12-14T13:07:38.033Z,44.88
2018-12-14T13:10:04.569Z,45.85
2018-12-14T13:12:31.120Z,45.88
2018-12-14T13:14:57.655Z,46.27
2018-12-14T13:17:24.193Z,46.23
2018-12-14T13:19:50.715Z,46.73
2018-12-14T13:22:17.244Z,46.68
2018-12-14T13:24:43.798Z,45.95
2018-12-14T13:27:10.360Z,46.09
2018-12-14T13:29:36.888Z,46.57
2018-12-14T13:32:03.421Z,46.62
2018-12-14T13:34:29.951Z,47.09
2018-12-14T13:36:56.549Z,46.20
2018-12-14T13:39:23.100Z,45.93
2018-12-14T13:41:49.676Z,46.04
2018-12-14T13:44:16.251Z,46.15
2018-12-14T13:46:42.892Z,45.93
2018-12-14T13:49:09.420Z,46.66
2018-12-14T13:51:35.981Z,45.96
2018-12-14T13:54:02.511Z,46.66
2018-12-14T13:56:29.055Z,45.89
2018-12-14T13:58:55.608Z,45.70
2018-12-14T14:01:22.149Z,45.66
2018-12-14T14:03:48.799Z,45.43
2018-12-14T14:06:15.369Z,45.26
2018-12-14T14:08:41.910Z,45.57
2018-12-14T14:11:08.451Z,46.49
2018-12-14T14:13:35.002Z,47.11
2018-12-14T14:16:01.536Z,47.25
2018-12-14T14:18:28.070Z,46.65
2018-12-14T14:20:54.625Z,46.13
2018-12-14T14:23:21.164Z,47.07
2018-12-14T14:25:47.889Z,46.96
2018-12-14T14:28:14.424Z,46.08
2018-12-14T14:30:40.955Z,46.64
2018-12-14T14:33:07.493Z,46.54
2018-12-14T14:38:07.084Z,46.44
2018-12-14T14:40:33.635Z,46.12
2018-12-14T14:43:00.186Z,46.64
2018-12-14T14:45:26.720Z,46.81
2018-12-14T14:47:53.253Z,46.83
2018-12-14T14:50:19.789Z,46.74
2018-12-14T14:52:46.328Z,46.06
2018-12-14T14:55:12.856Z,46.65
2018-12-14T14:57:39.596Z,46.16
2018-12-14T15:00:06.127Z,46.73
2018-12-14T15:02:32.656Z,46.15
2018-12-14T15:04:59.197Z,46.71
2018-12-14T15:07:25.727Z,46.24
2018-12-14T15:09:52.261Z,46.23
2018-12-14T15:12:18.788Z,46.90
2018-12-14T15:14:45.346Z,46.81
2018-12-14T15:17:11.880Z,46.27
2018-12-14T15:19:38.416Z,46.75
2018-12-14T15:22:04.964Z,46.66
2018-12-14T15:24:31.600Z,46.44
2018-12-14T15:26:58.145Z,46.19
2018-12-14T15:29:24.675Z,46.35
2018-12-14T15:31:51.387Z,46.24
2018-12-14T15:34:17.921Z,46.76
2018-12-14T15:36:44.481Z,46.73
2018-12-14T15:39:11.025Z,46.76
2018-12-14T15:41:37.558Z,46.22
2018-12-14T15:44:04.117Z,46.73
2018-12-14T15:46:30.654Z,46.75
2018-12-14T15:48:57.181Z,46.14
2018-12-14T15:51:23.732Z,45.99
2018-12-14T15:53:50.261Z,46.71
2018-12-14T15:56:16.797Z,46.75
2018-12-14T15:58:43.354Z,46.27
2018-12-14T16:01:09.888Z,46.10
2018-12-14T16:03:36.429Z,46.28
2018-12-14T16:06:02.979Z,46.35
2018-12-14T16:08:29.517Z,46.13
2018-12-14T16:10:56.044Z,46.75
2018-12-14T16:13:22.572Z,46.73
2018-12-14T16:15:49.137Z,46.76
2018-12-14T16:18:15.696Z,46.51
2018-12-14T16:20:42.232Z,46.98
2018-12-14T16:23:08.783Z,46.80
2018-12-14T16:25:35.316Z,46.89
2018-12-14T16:28:01.886Z,46.82
2018-12-14T16:30:28.420Z,46.81
2018-12-14T16:32:54.961Z,46.61
2018-12-14T16:35:21.496Z,47.01
2018-12-14T16:37:48.032Z,46.36
2018-12-14T16:40:14.564Z,46.62
2018-12-14T16:42:41.092Z,46.07
2018-12-14T16:45:07.648Z,46.46
2018-12-14T16:47:34.201Z,46.24
2018-12-14T16:50:00.732Z,47.26
2018-12-14T16:52:27.259Z,46.74
2018-12-14T16:54:53.792Z,46.51
2018-12-14T16:57:20.324Z,46.48
2018-12-14T16:59:46.857Z,46.22
2018-12-14T17:02:13.412Z,46.88
2018-12-14T17:04:39.966Z,46.47
2018-12-14T17:07:06.529Z,46.78
2018-12-14T17:09:33.065Z,46.79
2018-12-14T17:11:59.603Z,46.97
2018-12-14T17:14:26.141Z,46.66
2018-12-14T17:16:52.682Z,46.41
2018-12-14T17:19:19.232Z,47.13
2018-12-14T17:21:45.768Z,46.95
2018-12-14T17:24:12.339Z,46.19
2018-12-14T17:26:38.871Z,47.13
2018-12-14T17:29:05.525Z,46.66
2018-12-14T17:31:32.127Z,46.29
2018-12-14T17:33:59.281Z,47.44
2018-12-14T17:36:25.843Z,46.34
2018-12-14T17:38:52.381Z,47.05
2018-12-14T17:41:18.914Z,47.06
2018-12-14T17:43:45.440Z,46.42
2018-12-14T17:46:11.976Z,47.14
2018-12-14T17:48:38.508Z,46.62
2018-12-14T17:51:05.040Z,46.73
2018-12-14T17:53:31.601Z,47.20
2018-12-14T17:55:58.142Z,47.17
2018-12-14T17:58:24.668Z,46.91
2018-12-14T18:00:51.195Z,46.43
2018-12-14T18:03:17.733Z,46.28
2018-12-14T18:05:44.272Z,47.25
2018-12-14T18:08:10.805Z,46.62
2018-12-14T18:10:37.341Z,46.33
2018-12-14T18:13:03.917Z,47.30
2018-12-14T18:15:30.448Z,46.89
2018-12-14T18:17:56.981Z,47.16
2018-12-14T18:20:23.517Z,46.71
2018-12-14T18:22:50.255Z,46.43
2018-12-14T18:25:17.172Z,47.28
2018-12-14T18:27:43.709Z,46.98
2018-12-14T18:30:10.387Z,46.98
2018-12-14T18:32:37.111Z,47.06
2018-12-14T18:35:03.844Z,46.50
2018-12-14T18:37:30.386Z,46.89
2018-12-14T18:39:56.944Z,47.16
2018-12-14T18:42:23.486Z,47.15
2018-12-14T18:44:50.068Z,47.00
2018-12-14T18:47:16.613Z,46.27
2018-12-14T18:49:43.180Z,47.01
2018-12-14T18:52:09.739Z,46.49
2018-12-14T18:54:37.196Z,46.90
2018-12-14T18:57:03.765Z,46.81
2018-12-14T18:59:30.389Z,46.71
2018-12-14T19:01:56.920Z,46.21
2018-12-14T19:04:23.469Z,46.70
2018-12-14T19:06:50.030Z,46.36
2018-12-14T19:09:16.568Z,46.44
2018-12-14T19:11:43.104Z,46.92
2018-12-14T19:14:09.644Z,46.91
2018-12-14T19:16:36.180Z,46.90
2018-12-14T19:19:02.736Z,46.99
2018-12-14T19:21:29.273Z,47.04
2018-12-14T19:23:55.814Z,46.98
2018-12-14T19:26:22.347Z,47.08
2018-12-14T19:28:48.889Z,46.71
2018-12-14T19:31:15.428Z,47.47
2018-12-14T19:33:41.957Z,48.71
2018-12-14T19:36:08.517Z,48.32
2018-12-14T19:38:35.047Z,49.62
2018-12-14T19:41:01.579Z,49.56
2018-12-14T19:43:28.108Z,50.42
2018-12-14T19:45:54.644Z,49.39
2018-12-14T19:48:21.181Z,50.04
2018-12-14T19:50:47.712Z,49.42
2018-12-14T19:53:14.246Z,49.30
2018-12-14T19:55:40.783Z,49.90
2018-12-14T19:58:07.345Z,48.95
2018-12-14T20:03:41.108Z,43.28
2018-12-14T20:06:07.652Z,45.74
2018-12-14T20:08:34.785Z,46.24
2018-12-14T20:11:01.574Z,47.05
2018-12-14T20:13:28.125Z,46.67
2018-12-14T20:15:57.717Z,46.82
2018-12-14T20:18:23.236Z,47.21
2018-12-14T20:20:49.782Z,47.47
2018-12-14T20:23:16.493Z,47.28
2018-12-14T20:25:43.144Z,47.34
2018-12-14T20:28:09.760Z,47.96
2018-12-14T20:30:36.362Z,47.51
2018-12-14T20:33:02.940Z,47.33
2018-12-14T20:35:29.525Z,47.14
2018-12-14T20:37:56.258Z,47.96
2018-12-14T20:40:22.815Z,47.35
2018-12-14T20:42:49.383Z,47.91
2018-12-14T20:45:16.977Z,47.63
2018-12-14T20:47:43.544Z,47.71
2018-12-14T20:50:10.130Z,47.39
2018-12-14T20:52:36.892Z,47.39
2018-12-14T20:55:03.458Z,47.87
2018-12-14T20:57:30.035Z,47.23
2018-12-14T20:59:56.622Z,47.58
2018-12-14T21:02:23.259Z,47.74
2018-12-14T21:04:50.078Z,47.17
2018-12-14T21:07:16.789Z,47.10
2018-12-14T21:09:44.440Z,47.11
2018-12-14T21:12:11.069Z,47.59
2018-12-14T21:14:37.834Z,47.50
2018-12-14T21:17:04.487Z,47.03
2018-12-14T21:19:31.236Z,47.49
2018-12-14T21:21:57.858Z,46.94
2018-12-14T21:24:24.611Z,46.98
2018-12-14T21:26:51.221Z,46.88
2018-12-14T21:29:17.781Z,47.49
2018-12-14T21:31:44.327Z,46.81
2018-12-14T21:34:10.942Z,46.53
2018-12-14T21:36:37.517Z,47.62
2018-12-14T21:39:04.772Z,47.40
2018-12-14T21:41:31.337Z,47.55
2018-12-14T21:43:57.911Z,47.30
2018-12-14T21:46:24.466Z,47.29
2018-12-14T21:48:51.092Z,47.22
2018-12-14T21:51:17.634Z,47.82
2018-12-14T21:53:44.215Z,46.85
2018-12-14T21:56:10.781Z,47.02
2018-12-14T21:58:37.412Z,47.01
2018-12-14T22:01:03.967Z,47.44
2018-12-14T22:03:30.547Z,46.71
2018-12-14T22:05:57.120Z,47.34
2018-12-14T22:08:23.791Z,47.41
2018-12-14T22:10:50.357Z,47.02
2018-12-14T22:13:16.927Z,46.86
2018-12-14T22:15:43.479Z,47.42
2018-12-14T22:18:10.036Z,46.96
2018-12-14T22:20:36.594Z,46.74
2018-12-14T22:23:03.158Z,47.17
2018-12-14T22:25:29.734Z,47.45
2018-12-14T22:27:56.290Z,47.30
2018-12-14T22:30:22.993Z,47.15
2018-12-14T22:32:49.549Z,47.39
2018-12-14T22:35:16.268Z,46.68
2018-12-14T22:37:42.832Z,47.40
2018-12-14T22:40:09.375Z,46.60
2018-12-14T22:42:35.971Z,46.60
2018-12-14T22:45:02.559Z,46.96
2018-12-14T22:47:29.132Z,46.83
2018-12-14T22:49:55.735Z,46.57
2018-12-14T22:52:22.327Z,46.74
2018-12-14T22:54:48.945Z,47.42
2018-12-14T22:57:15.511Z,46.98
2018-12-14T22:59:42.075Z,47.31
2018-12-14T23:02:08.646Z,47.39
2018-12-14T23:04:35.189Z,46.66
2018-12-14T23:07:01.774Z,46.74
2018-12-14T23:09:28.382Z,47.51
2018-12-14T23:11:55.003Z,47.43
2018-12-14T23:14:21.556Z,47.30
2018-12-14T23:16:52.255Z,46.78
2018-12-14T23:19:16.753Z,46.73
2018-12-14T23:21:43.329Z,47.34
2018-12-14T23:24:10.169Z,47.65
2018-12-14T23:26:36.749Z,47.20
2018-12-14T23:29:03.308Z,46.69
2018-12-14T23:31:29.904Z,46.56
2018-12-14T23:33:56.464Z,46.65
2018-12-14T23:36:23.004Z,46.65
2018-12-14T23:38:49.568Z,46.58
2018-12-14T23:41:16.241Z,47.07
2018-12-14T23:43:42.808Z,47.25
2018-12-14T23:46:09.627Z,47.20
2018-12-14T23:48:36.192Z,47.41
2018-12-14T23:51:02.814Z,47.37
2018-12-14T23:53:29.412Z,47.50
2018-12-14T23:55:56.073Z,47.41
2018-12-14T23:58:22.645Z,46.66
